Time;durP1;ratioP1;P1;durP2;ratioP2;P2;SDS_P1;SDS_P2;PMS_P1;PMS_P2;Temp;Humidity;BMP_temperature;BMP_pressure;BME280_temperature;BME280_humidity;BME280_pressure;Samples;Min_cycle;Max_cycle;Signal;HPM_P1;HPM_P2
2022/11/26 00:00:48;;;;;;;7.67;3.43;;;9.60;99.90;;;;;;7394428;19;20146;-74
2022/11/26 00:03:16;;;;;;;8.27;3.50;;;9.60;99.90;;;;;;7395270;19;20157;-74
2022/11/26 00:05:44;;;;;;;5.57;2.90;;;9.60;99.90;;;;;;7393876;19;20158;-74
2022/11/26 00:08:27;;;;;;;6.83;3.10;;;9.60;99.90;;;;;;7395675;19;20141;-74
2022/11/26 00:10:54;;;;;;;8.00;3.00;;;9.60;99.90;;;;;;7394749;19;20225;-75
2022/11/26 00:13:23;;;;;;;5.40;2.80;;;9.60;99.90;;;;;;7395966;19;20150;-75
2022/11/26 00:15:49;;;;;;;10.77;3.33;;;9.60;99.90;;;;;;7394703;19;20150;-75
2022/11/26 00:18:16;;;;;;;7.77;3.40;;;9.70;99.90;;;;;;7394042;19;20525;-74
2022/11/26 00:20:43;;;;;;;7.87;4.00;;;9.70;99.90;;;;;;7394634;19;20150;-74
2022/11/26 00:23:19;;;;;;;6.77;3.20;;;9.50;99.90;;;;;;7393762;19;20150;-75
2022/11/26 00:25:56;;;;;;;7.83;3.63;;;9.30;99.90;;;;;;7394580;19;20146;-73
2022/11/26 00:28:27;;;;;;;11.37;3.27;;;9.40;99.90;;;;;;7394685;19;20174;-75
2022/11/26 00:30:58;;;;;;;8.00;3.50;;;9.40;99.90;;;;;;7395251;19;20134;-75
2022/11/26 00:33:25;;;;;;;6.50;3.30;;;9.40;99.90;;;;;;7394425;19;20160;-75
2022/11/26 00:36:05;;;;;;;8.13;3.50;;;9.20;99.90;;;;;;7395229;19;20485;-74
2022/11/26 00:38:31;;;;;;;7.13;2.97;;;9.40;99.90;;;;;;7394198;19;20145;-74
2022/11/26 00:40:57;;;;;;;8.17;3.17;;;9.40;99.90;;;;;;7393299;19;20142;-75
2022/11/26 00:43:23;;;;;;;6.97;3.23;;;9.50;99.90;;;;;;7392208;19;20150;-74
2022/11/26 00:45:49;;;;;;;5.57;2.80;;;9.50;99.90;;;;;;7392433;19;20134;-75
2022/11/26 00:48:16;;;;;;;10.70;2.90;;;9.60;99.90;;;;;;7393249;19;20135;-75
2022/11/26 00:50:48;;;;;;;6.67;3.20;;;9.60;99.90;;;;;;7395422;19;20138;-74
2022/11/26 00:53:17;;;;;;;10.27;3.93;;;9.60;99.90;;;;;;7393371;19;20166;-74
2022/11/26 00:55:46;;;;;;;9.73;3.40;;;9.60;99.90;;;;;;7392339;19;20248;-75
2022/11/26 00:58:26;;;;;;;11.03;4.07;;;9.60;99.90;;;;;;7394096;19;20135;-75
2022/11/26 01:00:53;;;;;;;8.77;3.13;;;9.50;99.90;;;;;;7392414;19;20605;-74
2022/11/26 01:03:19;;;;;;;6.50;2.73;;;9.40;99.90;;;;;;7391371;19;20163;-75
2022/11/26 01:05:50;;;;;;;7.30;3.27;;;9.50;99.90;;;;;;7393029;19;20147;-74
2022/11/26 01:08:30;;;;;;;13.03;3.40;;;9.40;99.90;;;;;;7395475;19;20444;-75
2022/11/26 01:10:57;;;;;;;9.27;3.23;;;9.60;99.90;;;;;;7393172;19;20520;-75
2022/11/26 01:13:23;;;;;;;8.00;3.30;;;9.60;99.90;;;;;;7395865;19;20143;-74
2022/11/26 01:15:49;;;;;;;8.17;3.67;;;9.70;99.90;;;;;;7392194;19;20492;-74
2022/11/26 01:18:18;;;;;;;9.93;3.87;;;9.60;99.90;;;;;;7394294;19;20138;-74
2022/11/26 01:20:44;;;;;;;8.00;4.07;;;9.60;99.90;;;;;;7392656;19;20127;-75
2022/11/26 01:23:13;;;;;;;9.33;4.20;;;9.60;99.90;;;;;;7391992;19;20143;-75
2022/11/26 01:25:39;;;;;;;9.27;3.60;;;9.60;99.90;;;;;;7390672;19;20147;-74
2022/11/26 01:28:10;;;;;;;8.37;3.77;;;9.60;99.90;;;;;;7387046;19;20156;-73
2022/11/26 01:30:36;;;;;;;10.93;3.80;;;9.50;99.90;;;;;;7394541;19;20188;-74
2022/11/26 01:33:02;;;;;;;9.13;3.70;;;9.20;99.90;;;;;;7394546;19;20135;-75
2022/11/26 01:35:28;;;;;;;6.77;3.20;;;9.30;99.90;;;;;;7390872;19;20162;-74
2022/11/26 01:37:54;;;;;;;8.33;3.50;;;9.50;99.90;;;;;;7394353;19;20138;-74
2022/11/26 01:40:25;;;;;;;7.23;3.40;;;9.60;99.90;;;;;;7394231;19;20482;-74
2022/11/26 01:43:09;;;;;;;10.00;3.53;;;9.60;99.90;;;;;;7393984;19;20557;-74
2022/11/26 01:45:35;;;;;;;7.20;3.60;;;9.60;99.90;;;;;;7390980;19;20474;-74
2022/11/26 01:48:01;;;;;;;7.67;3.30;;;9.60;99.90;;;;;;7389551;19;20143;-74
2022/11/26 01:50:27;;;;;;;7.80;3.00;;;9.60;99.90;;;;;;7391737;19;20143;-74
2022/11/26 01:52:59;;;;;;;6.57;3.40;;;9.60;99.90;;;;;;7393233;19;20618;-75
2022/11/26 01:55:37;;;;;;;5.40;3.33;;;9.60;99.90;;;;;;7390315;19;20191;-74
2022/11/26 01:58:06;;;;;;;8.10;3.43;;;9.60;99.90;;;;;;7390188;19;20154;-74
2022/11/26 02:00:32;;;;;;;10.20;3.50;;;9.50;99.90;;;;;;7391688;19;20127;-74
2022/11/26 02:02:58;;;;;;;6.37;3.30;;;9.50;99.90;;;;;;7390237;19;20174;-75
2022/11/26 02:05:28;;;;;;;11.23;3.23;;;9.60;99.90;;;;;;7391803;19;20143;-74
2022/11/26 02:07:55;;;;;;;6.80;3.30;;;9.60;99.90;;;;;;7393385;19;20134;-74
2022/11/26 02:10:21;;;;;;;4.47;3.10;;;9.70;99.90;;;;;;7391643;19;20146;-75
2022/11/26 02:12:47;;;;;;;8.67;3.23;;;9.60;99.90;;;;;;7390736;19;20475;-74
2022/11/26 02:15:13;;;;;;;6.10;2.90;;;9.60;99.90;;;;;;7390860;19;20143;-74
2022/11/26 02:17:50;;;;;;;10.03;2.90;;;9.30;99.90;;;;;;7390878;19;20182;-75
2022/11/26 02:20:43;;;;;;;5.10;3.17;;;9.40;99.90;;;;;;7390948;19;20557;-74
2022/11/26 02:23:37;;;;;;;6.17;2.90;;;9.60;99.90;;;;;;7390278;19;20560;-73
2022/11/26 02:26:11;;;;;;;9.77;3.23;;;9.70;99.90;;;;;;7391476;19;20197;-74
2022/11/26 02:29:07;;;;;;;7.70;3.03;;;9.70;99.90;;;;;;7389814;19;20154;-74
2022/11/26 02:31:59;;;;;;;7.13;3.00;;;9.60;99.90;;;;;;7390619;19;20146;-74
2022/11/26 02:34:57;;;;;;;5.53;3.17;;;9.70;99.90;;;;;;7390555;19;20134;-74
2022/11/26 02:37:42;;;;;;;6.67;3.07;;;9.60;99.90;;;;;;7392005;19;20466;-74
2022/11/26 02:40:08;;;;;;;7.87;2.77;;;9.70;99.90;;;;;;7389463;19;20572;-75
2022/11/26 02:42:35;;;;;;;8.33;3.37;;;9.50;99.90;;;;;;7385997;19;20154;-74
2022/11/26 02:45:07;;;;;;;8.37;3.83;;;9.00;99.90;;;;;;7389049;19;20286;-74
2022/11/26 02:47:34;;;;;;;4.97;2.80;;;9.10;99.90;;;;;;7390530;19;20153;-74
2022/11/26 02:50:06;;;;;;;7.77;3.53;;;9.30;99.90;;;;;;7388208;19;20137;-74
2022/11/26 02:52:34;;;;;;;8.40;3.67;;;9.50;99.90;;;;;;7391339;19;20135;-74
2022/11/26 02:55:02;;;;;;;6.40;2.80;;;9.60;99.90;;;;;;7390876;19;20530;-74
2022/11/26 02:57:31;;;;;;;5.60;2.90;;;9.60;99.90;;;;;;7390791;19;20210;-74
2022/11/26 02:59:57;;;;;;;7.13;2.97;;;9.40;99.90;;;;;;7389156;19;20157;-75
2022/11/26 03:02:30;;;;;;;8.70;3.30;;;9.50;99.90;;;;;;7391591;19;20143;-74
2022/11/26 03:05:00;;;;;;;7.20;3.10;;;9.50;99.90;;;;;;7390541;19;20491;-74
2022/11/26 03:07:28;;;;;;;6.93;2.90;;;9.60;99.90;;;;;;7384292;19;20147;-73
2022/11/26 03:10:00;;;;;;;5.27;3.07;;;9.60;99.90;;;;;;7390177;19;20138;-74
2022/11/26 03:12:27;;;;;;;7.70;2.90;;;9.60;99.90;;;;;;7389383;19;20546;-74
2022/11/26 03:14:53;;;;;;;7.73;3.87;;;9.70;99.90;;;;;;7391501;19;20146;-74
2022/11/26 03:17:19;;;;;;;6.83;3.10;;;9.70;99.90;;;;;;7391228;19;20148;-74
2022/11/26 03:19:45;;;;;;;7.43;3.13;;;9.70;99.90;;;;;;7389088;19;20158;-75
2022/11/26 03:22:13;;;;;;;8.50;3.23;;;9.50;99.90;;;;;;7389763;19;20134;-74
2022/11/26 03:24:38;;;;;;;7.30;3.27;;;9.60;99.90;;;;;;7388775;19;20134;-74
2022/11/26 03:27:04;;;;;;;9.63;3.43;;;9.50;99.90;;;;;;7384561;19;20157;-75
2022/11/26 03:29:31;;;;;;;6.90;3.53;;;9.40;99.90;;;;;;7388728;19;20143;-73
2022/11/26 03:31:56;;;;;;;7.57;3.47;;;9.20;99.90;;;;;;7389712;19;20143;-74
2022/11/26 03:34:22;;;;;;;5.30;2.87;;;9.20;99.90;;;;;;7388629;19;20170;-74
2022/11/26 03:36:48;;;;;;;6.07;3.27;;;9.40;99.90;;;;;;7388122;19;20127;-74
2022/11/26 03:39:14;;;;;;;5.13;2.80;;;9.60;99.90;;;;;;7389467;19;20130;-74
2022/11/26 03:41:42;;;;;;;7.53;3.33;;;9.60;99.90;;;;;;7387546;19;20134;-74
2022/11/26 03:44:10;;;;;;;9.33;3.67;;;9.60;99.90;;;;;;7387730;19;20482;-75
2022/11/26 03:46:35;;;;;;;10.07;3.50;;;9.60;99.90;;;;;;7391066;19;20139;-74
2022/11/26 03:49:01;;;;;;;6.03;3.40;;;9.60;99.90;;;;;;7389631;19;20611;-74
2022/11/26 03:51:27;;;;;;;7.13;3.23;;;9.30;99.90;;;;;;7394239;19;20146;-75
2022/11/26 03:53:52;;;;;;;8.00;3.13;;;9.40;99.90;;;;;;7395695;19;20571;-74
2022/11/26 03:56:18;;;;;;;9.97;3.40;;;9.50;99.90;;;;;;7389976;19;20170;-76
2022/11/26 03:58:44;;;;;;;7.77;3.10;;;9.50;99.90;;;;;;7397165;19;20502;-74
2022/11/26 04:01:11;;;;;;;6.57;3.50;;;9.60;99.90;;;;;;7396582;19;20188;-75
2022/11/26 04:03:38;;;;;;;7.10;3.17;;;9.60;99.90;;;;;;7392810;19;20168;-76
2022/11/26 04:06:04;;;;;;;5.63;3.20;;;9.60;99.90;;;;;;7395218;19;20701;-74
2022/11/26 04:08:30;;;;;;;6.43;3.40;;;9.60;99.90;;;;;;7396003;19;20167;-75
2022/11/26 04:10:55;;;;;;;5.60;3.10;;;9.60;99.90;;;;;;7395754;19;20155;-73
2022/11/26 04:13:21;;;;;;;10.87;3.60;;;9.60;99.90;;;;;;7395464;19;20150;-74
2022/11/26 04:15:47;;;;;;;9.83;3.57;;;9.50;99.90;;;;;;7394027;19;20625;-73
2022/11/26 04:18:13;;;;;;;14.33;4.30;;;9.50;99.90;;;;;;7397052;19;20149;-74
2022/11/26 04:20:39;;;;;;;7.67;3.90;;;9.50;99.90;;;;;;7396136;19;20670;-74
2022/11/26 04:23:05;;;;;;;10.10;3.10;;;9.50;99.90;;;;;;7393095;19;20135;-74
2022/11/26 04:25:30;;;;;;;10.77;3.23;;;9.70;99.90;;;;;;7395555;19;20135;-74
2022/11/26 04:27:56;;;;;;;9.47;3.20;;;9.60;99.90;;;;;;7395313;19;20149;-74
2022/11/26 04:30:22;;;;;;;11.93;3.37;;;9.50;99.90;;;;;;7394641;19;20175;-76
2022/11/26 04:32:48;;;;;;;7.53;2.60;;;9.60;99.90;;;;;;7396632;19;20534;-74
2022/11/26 04:35:13;;;;;;;11.27;3.40;;;9.50;99.90;;;;;;7393848;19;20142;-74
2022/11/26 04:37:39;;;;;;;8.53;2.67;;;9.50;99.90;;;;;;7395159;19;20150;-73
2022/11/26 04:40:06;;;;;;;10.57;2.70;;;9.60;99.90;;;;;;7394276;19;20151;-74
2022/11/26 04:42:32;;;;;;;4.17;2.07;;;9.60;99.90;;;;;;7390310;19;20178;-74
2022/11/26 04:44:57;;;;;;;8.77;1.80;;;9.60;99.90;;;;;;7392585;19;20167;-75
2022/11/26 04:47:23;;;;;;;6.83;1.87;;;9.60;99.90;;;;;;7393660;19;20142;-75
2022/11/26 04:49:49;;;;;;;3.67;1.70;;;9.60;99.90;;;;;;7394921;19;20657;-74
2022/11/26 04:52:15;;;;;;;4.67;1.57;;;9.60;99.90;;;;;;7392518;19;20638;-74
2022/11/26 04:54:40;;;;;;;4.20;1.80;;;9.50;99.90;;;;;;7392520;19;20538;-73
2022/11/26 04:57:06;;;;;;;7.90;2.40;;;9.60;99.90;;;;;;7395817;19;20595;-74
2022/11/26 04:59:32;;;;;;;3.13;1.90;;;9.60;99.90;;;;;;7392247;19;20157;-73
2022/11/26 05:01:58;;;;;;;5.77;2.00;;;9.60;99.90;;;;;;7392500;19;20131;-73
2022/11/26 05:04:25;;;;;;;5.57;1.97;;;9.60;99.90;;;;;;7393607;19;20481;-74
2022/11/26 05:06:52;;;;;;;5.90;1.80;;;9.40;99.90;;;;;;7394664;19;20218;-77
2022/11/26 05:09:17;;;;;;;6.60;1.83;;;9.40;99.90;;;;;;7392319;19;20159;-74
2022/11/26 05:11:43;;;;;;;6.00;2.40;;;9.40;99.90;;;;;;7391935;19;20451;-74
2022/11/26 05:14:09;;;;;;;8.87;2.50;;;9.10;99.90;;;;;;7392223;19;20146;-75
2022/11/26 05:16:35;;;;;;;6.03;2.60;;;9.10;99.90;;;;;;7392797;19;20532;-74
2022/11/26 05:19:00;;;;;;;5.27;2.90;;;9.20;99.90;;;;;;7393226;19;20206;-73
2022/11/26 05:21:26;;;;;;;7.07;2.87;;;9.30;99.90;;;;;;7391771;19;20625;-74
2022/11/26 05:23:52;;;;;;;6.93;2.20;;;9.40;99.90;;;;;;7394461;19;20131;-74
2022/11/26 05:26:17;;;;;;;6.93;2.30;;;9.40;99.90;;;;;;7393865;19;20149;-75
2022/11/26 05:28:43;;;;;;;6.33;2.87;;;9.40;99.90;;;;;;7395714;19;20146;-73
2022/11/26 05:31:09;;;;;;;4.60;2.23;;;9.30;99.90;;;;;;7393554;19;20131;-75
2022/11/26 05:33:35;;;;;;;5.87;2.20;;;9.30;99.90;;;;;;7392641;19;20175;-74
2022/11/26 05:36:01;;;;;;;6.77;2.10;;;9.30;99.90;;;;;;7395126;19;20138;-73
2022/11/26 05:38:26;;;;;;;6.70;2.47;;;9.30;99.90;;;;;;7393990;19;20146;-74
2022/11/26 05:40:52;;;;;;;4.00;2.30;;;9.30;99.90;;;;;;7394966;19;20151;-74
2022/11/26 05:43:18;;;;;;;6.77;1.90;;;9.00;99.90;;;;;;7392384;19;20151;-74
2022/11/26 05:45:43;;;;;;;6.97;2.43;;;9.10;99.90;;;;;;7394712;19;20496;-74
2022/11/26 05:48:09;;;;;;;9.13;3.00;;;9.10;99.90;;;;;;7391234;19;20165;-75
2022/11/26 05:50:35;;;;;;;12.27;2.30;;;8.90;99.90;;;;;;7391743;19;20484;-75
2022/11/26 05:53:01;;;;;;;2.80;2.03;;;8.80;99.90;;;;;;7392168;19;20147;-75
2022/11/26 05:55:27;;;;;;;6.57;2.57;;;8.60;99.90;;;;;;7388219;19;20669;-74
2022/11/26 05:57:52;;;;;;;5.07;2.63;;;8.80;99.90;;;;;;7390468;19;20205;-74
2022/11/26 06:00:18;;;;;;;6.60;2.97;;;8.90;99.90;;;;;;7392961;19;20218;-75
2022/11/26 06:02:44;;;;;;;5.50;2.80;;;9.00;99.90;;;;;;7389197;19;20161;-75
2022/11/26 06:05:10;;;;;;;5.50;2.53;;;8.90;99.90;;;;;;7390019;19;20131;-73
2022/11/26 06:07:36;;;;;;;5.63;2.77;;;8.60;99.90;;;;;;7391834;19;20142;-74
2022/11/26 06:10:02;;;;;;;6.33;2.90;;;8.50;99.90;;;;;;7391309;19;20131;-74
2022/11/26 06:12:28;;;;;;;8.13;3.33;;;8.70;99.90;;;;;;7388700;19;20134;-74
2022/11/26 06:14:54;;;;;;;9.53;3.20;;;8.70;99.90;;;;;;7390952;19;20147;-76
2022/11/26 06:17:20;;;;;;;8.57;3.10;;;8.70;99.90;;;;;;7392885;19;20158;-74
2022/11/26 06:19:46;;;;;;;4.70;2.80;;;8.70;99.90;;;;;;7390876;19;20589;-75
2022/11/26 06:22:11;;;;;;;6.37;2.80;;;8.90;99.90;;;;;;7392463;19;20139;-75
2022/11/26 06:24:37;;;;;;;7.43;3.10;;;8.90;99.90;;;;;;7390784;19;20151;-75
2022/11/26 06:27:03;;;;;;;6.07;2.80;;;8.20;99.90;;;;;;7392619;19;20218;-75
2022/11/26 06:29:29;;;;;;;6.03;2.97;;;8.10;99.90;;;;;;7391164;19;20150;-74
2022/11/26 06:31:54;;;;;;;5.73;2.87;;;8.30;99.90;;;;;;7393655;19;20145;-75
2022/11/26 06:34:22;;;;;;;10.33;2.90;;;7.90;99.90;;;;;;7390303;19;20150;-75
2022/11/26 06:36:47;;;;;;;4.43;2.40;;;7.90;99.90;;;;;;7392378;19;20147;-74
2022/11/26 06:39:13;;;;;;;5.07;2.37;;;8.20;99.90;;;;;;7391610;19;20544;-75
2022/11/26 06:41:39;;;;;;;8.67;2.70;;;8.00;99.90;;;;;;7389925;19;20749;-75
2022/11/26 06:44:04;;;;;;;7.27;2.50;;;7.80;99.90;;;;;;7390234;19;20158;-74
2022/11/26 06:46:33;;;;;;;9.40;3.30;;;7.80;99.90;;;;;;7388845;19;20662;-75
2022/11/26 06:49:03;;;;;;;6.93;2.90;;;7.80;99.90;;;;;;7390194;19;20154;-74
2022/11/26 06:51:29;;;;;;;10.03;3.10;;;7.90;99.90;;;;;;7389062;19;20138;-74
2022/11/26 06:53:55;;;;;;;7.50;3.00;;;8.10;99.90;;;;;;7388515;19;20189;-75
2022/11/26 06:56:20;;;;;;;5.10;2.87;;;8.40;99.90;;;;;;7389878;19;20154;-74
2022/11/26 06:58:48;;;;;;;7.83;3.00;;;8.30;99.90;;;;;;7391078;19;20223;-76
2022/11/26 07:01:17;;;;;;;4.30;2.53;;;8.40;99.90;;;;;;7391552;19;20147;-75
2022/11/26 07:03:43;;;;;;;4.23;2.43;;;8.50;99.90;;;;;;7388945;19;20165;-75
2022/11/26 07:06:22;;;;;;;8.03;2.90;;;8.60;99.90;;;;;;7390018;19;20166;-75
2022/11/26 07:08:49;;;;;;;4.70;3.10;;;8.60;99.90;;;;;;7393014;19;20142;-75
2022/11/26 07:11:15;;;;;;;5.20;2.53;;;8.60;99.90;;;;;;7393458;19;20599;-74
2022/11/26 07:13:41;;;;;;;8.73;3.50;;;8.60;99.90;;;;;;7390940;19;20139;-75
2022/11/26 07:16:10;;;;;;;10.07;2.90;;;8.60;99.90;;;;;;7386974;19;20690;-76
2022/11/26 07:18:36;;;;;;;3.90;2.67;;;8.60;99.90;;;;;;7388608;19;20587;-75
2022/11/26 07:21:10;;;;;;;7.70;3.20;;;8.40;99.90;;;;;;7389590;19;20134;-75
2022/11/26 07:23:37;;;;;;;6.70;2.40;;;8.50;99.90;;;;;;7385059;19;20134;-78
2022/11/26 07:26:04;;;;;;;7.33;3.30;;;8.50;99.90;;;;;;7398175;19;20143;-77
2022/11/26 07:28:31;;;;;;;8.07;3.17;;;8.60;99.90;;;;;;7396239;19;20154;-77
2022/11/26 07:31:02;;;;;;;6.10;2.97;;;8.50;99.90;;;;;;7395665;19;20158;-77
2022/11/26 07:33:28;;;;;;;7.67;3.03;;;8.50;99.90;;;;;;7395491;19;20135;-77
2022/11/26 07:35:57;;;;;;;7.77;4.30;;;8.60;99.90;;;;;;7396616;19;20175;-78
2022/11/26 07:38:23;;;;;;;8.50;3.07;;;8.60;99.90;;;;;;7394697;19;20147;-77
2022/11/26 07:40:48;;;;;;;8.47;3.20;;;8.60;99.90;;;;;;7396476;19;20130;-77
2022/11/26 07:43:14;;;;;;;8.83;3.17;;;8.70;99.90;;;;;;7392153;19;20138;-77
2022/11/26 07:45:40;;;;;;;11.63;4.97;;;8.70;99.90;;;;;;7394437;19;20127;-78
2022/11/26 07:48:06;;;;;;;8.83;3.50;;;8.80;99.90;;;;;;7392205;19;20138;-77
2022/11/26 07:50:32;;;;;;;6.67;3.50;;;8.80;99.90;;;;;;7395296;19;20123;-78
2022/11/26 07:52:57;;;;;;;6.47;3.10;;;8.90;99.90;;;;;;7392527;19;20141;-77
2022/11/26 07:55:23;;;;;;;6.33;2.90;;;8.70;99.90;;;;;;7391548;19;20711;-77
2022/11/26 07:57:49;;;;;;;6.67;2.87;;;8.70;99.90;;;;;;7396067;19;20138;-78
2022/11/26 08:00:15;;;;;;;8.90;2.77;;;8.80;99.90;;;;;;7394600;19;20499;-77
2022/11/26 08:02:41;;;;;;;18.47;10.43;;;8.80;99.90;;;;;;7390610;19;20135;-78
2022/11/26 08:05:07;;;;;;;13.73;6.20;;;8.80;99.90;;;;;;7393652;19;20688;-77
2022/11/26 08:07:34;;;;;;;9.03;3.60;;;8.70;99.90;;;;;;7394784;19;20147;-77
2022/11/26 08:10:01;;;;;;;8.33;3.37;;;8.60;99.90;;;;;;7394162;19;20127;-77
2022/11/26 08:12:26;;;;;;;9.80;3.30;;;8.60;99.90;;;;;;7394235;19;20583;-76
2022/11/26 08:14:52;;;;;;;8.07;3.47;;;8.80;99.90;;;;;;7395477;19;20147;-77
2022/11/26 08:17:18;;;;;;;6.20;3.37;;;8.70;99.90;;;;;;7395016;19;20126;-77
2022/11/26 08:19:44;;;;;;;5.03;2.90;;;8.80;99.90;;;;;;7395261;19;20126;-78
2022/11/26 08:22:09;;;;;;;6.83;3.43;;;8.90;99.90;;;;;;7391105;19;20141;-78
2022/11/26 08:24:35;;;;;;;3.47;2.47;;;8.90;99.90;;;;;;7395639;19;20141;-77
2022/11/26 08:27:01;;;;;;;6.17;3.30;;;8.90;99.90;;;;;;7395379;19;20593;-78
2022/11/26 08:29:27;;;;;;;7.73;3.27;;;8.80;99.90;;;;;;7394868;19;20194;-77
2022/11/26 08:31:52;;;;;;;4.53;3.13;;;8.90;99.90;;;;;;7393518;19;20139;-78
2022/11/26 08:34:20;;;;;;;6.80;3.03;;;8.90;99.90;;;;;;7389783;19;20143;-78
2022/11/26 08:36:45;;;;;;;6.20;3.10;;;9.00;99.90;;;;;;7388524;19;20174;-78
2022/11/26 08:39:17;;;;;;;9.67;3.67;;;9.00;99.90;;;;;;7407020;19;20508;-77
2022/11/26 08:41:45;;;;;;;9.90;3.73;;;9.00;99.90;;;;;;7396355;19;20601;-78
2022/11/26 08:44:11;;;;;;;7.43;3.70;;;9.00;99.90;;;;;;7391018;19;20150;-78
2022/11/26 08:46:39;;;;;;;5.43;3.03;;;9.20;99.90;;;;;;7390094;19;20142;-77
2022/11/26 08:49:06;;;;;;;4.67;3.20;;;9.10;99.90;;;;;;7397877;19;20150;-77
2022/11/26 08:51:32;;;;;;;5.57;3.50;;;9.20;99.90;;;;;;7395259;19;20575;-76
2022/11/26 08:53:58;;;;;;;8.60;3.67;;;9.20;99.90;;;;;;7396682;19;20202;-74
2022/11/26 08:56:24;;;;;;;4.77;3.23;;;9.20;99.90;;;;;;7392314;19;20244;-76
2022/11/26 08:58:50;;;;;;;4.73;3.23;;;9.20;99.90;;;;;;7396033;19;20139;-78
2022/11/26 09:01:31;;;;;;;4.93;2.90;;;9.20;99.90;;;;;;7395871;19;20155;-76
2022/11/26 09:03:58;;;;;;;8.97;3.87;;;9.20;99.90;;;;;;7395608;19;20134;-77
2022/11/26 09:06:28;;;;;;;10.50;4.13;;;9.20;99.90;;;;;;7394757;19;20146;-76
2022/11/26 09:09:12;;;;;;;9.63;4.30;;;9.30;99.90;;;;;;7396255;19;20131;-78
2022/11/26 09:11:46;;;;;;;7.67;4.50;;;9.20;99.90;;;;;;7396679;19;20630;-78
2022/11/26 09:14:14;;;;;;;8.90;4.23;;;9.20;99.90;;;;;;7395443;19;20190;-79
2022/11/26 09:16:40;;;;;;;8.13;3.93;;;9.20;99.90;;;;;;7395330;19;20177;-78
2022/11/26 09:19:06;;;;;;;10.30;4.47;;;9.30;99.90;;;;;;7392212;19;20202;-76
2022/11/26 09:21:34;;;;;;;7.47;4.17;;;9.20;99.90;;;;;;7388391;19;20231;-78
2022/11/26 09:24:18;;;;;;;11.03;4.50;;;9.10;99.90;;;;;;7386304;19;20147;-77
2022/11/26 09:27:04;;;;;;;6.13;4.20;;;9.10;99.90;;;;;;7380389;19;20138;-77
2022/11/26 09:29:50;;;;;;;9.70;4.97;;;9.10;99.90;;;;;;7384185;19;20138;-80
2022/11/26 09:32:16;;;;;;;8.80;4.43;;;9.10;99.90;;;;;;7392147;19;20145;-77
2022/11/26 09:34:42;;;;;;;13.20;5.33;;;9.10;99.90;;;;;;7391721;19;20500;-77
2022/11/26 09:37:08;;;;;;;8.90;5.17;;;8.80;99.90;;;;;;7390357;19;20127;-79
2022/11/26 09:39:33;;;;;;;6.90;4.93;;;8.60;99.90;;;;;;7390002;19;20614;-78
2022/11/26 09:42:05;;;;;;;8.57;5.97;;;8.80;99.90;;;;;;7386262;19;20158;-79
2022/11/26 09:45:17;;;;;;;7.03;4.20;;;8.90;99.90;;;;;;7393178;19;20135;-79
2022/11/26 09:47:46;;;;;;;8.67;4.83;;;8.70;99.90;;;;;;7389258;19;20161;-79
2022/11/26 09:50:12;;;;;;;7.77;4.37;;;8.80;99.90;;;;;;7392417;19;20213;-78
2022/11/26 09:52:56;;;;;;;10.03;4.97;;;9.10;99.90;;;;;;7392729;19;20155;-77
2022/11/26 09:55:24;;;;;;;8.53;4.67;;;9.20;99.90;;;;;;7391304;19;20151;-79
2022/11/26 09:58:11;;;;;;;9.47;4.83;;;9.30;99.90;;;;;;7401512;19;20667;-77
2022/11/26 10:00:46;;;;;;;10.40;4.70;;;9.50;99.90;;;;;;7393168;19;20151;-77
2022/11/26 10:03:23;;;;;;;6.73;4.20;;;9.40;99.90;;;;;;7389887;19;20158;-77
2022/11/26 10:05:59;;;;;;;11.20;4.90;;;9.10;99.90;;;;;;7389977;19;20127;-77
2022/11/26 10:08:28;;;;;;;10.77;4.63;;;8.80;99.90;;;;;;7390503;19;20139;-78
2022/11/26 10:10:59;;;;;;;5.50;3.70;;;8.60;99.90;;;;;;7391758;19;20495;-77
2022/11/26 10:13:44;;;;;;;8.13;3.70;;;8.70;99.90;;;;;;7389751;19;20149;-77
2022/11/26 10:16:34;;;;;;;8.13;4.23;;;8.80;99.90;;;;;;7391954;19;20190;-77
2022/11/26 10:19:18;;;;;;;8.33;4.00;;;9.00;99.90;;;;;;7391742;19;20146;-78
2022/11/26 10:21:50;;;;;;;9.47;3.80;;;9.30;99.90;;;;;;7390076;19;20649;-78
2022/11/26 10:24:40;;;;;;;9.90;3.50;;;9.60;99.90;;;;;;7390815;19;20135;-78
2022/11/26 10:27:17;;;;;;;4.43;3.07;;;9.60;99.90;;;;;;7391132;19;20122;-80
2022/11/26 10:29:49;;;;;;;8.03;3.20;;;9.70;99.90;;;;;;7393052;19;20474;-79
2022/11/26 10:32:25;;;;;;;6.10;2.80;;;9.80;99.90;;;;;;7391239;19;20175;-79
2022/11/26 10:34:56;;;;;;;10.83;3.10;;;9.90;99.90;;;;;;7391172;19;20479;-79
2022/11/26 10:37:24;;;;;;;7.90;2.90;;;9.90;99.90;;;;;;7391637;19;20155;-78
2022/11/26 10:40:14;;;;;;;7.13;3.30;;;9.90;99.90;;;;;;7391121;19;20187;-78
2022/11/26 10:42:43;;;;;;;8.97;3.27;;;9.70;99.90;;;;;;7389330;19;20630;-78
2022/11/26 10:45:18;;;;;;;6.83;3.50;;;9.50;99.90;;;;;;7391751;19;20139;-79
2022/11/26 10:47:44;;;;;;;8.70;3.50;;;9.30;99.90;;;;;;7391835;19;20130;-78
2022/11/26 10:50:10;;;;;;;8.10;3.87;;;9.40;99.90;;;;;;7391925;19;20542;-78
2022/11/26 10:52:38;;;;;;;8.60;3.57;;;9.90;99.90;;;;;;7393577;19;20151;-80
2022/11/26 10:55:07;;;;;;;9.90;4.87;;;9.80;99.90;;;;;;7390083;19;20162;-78
2022/11/26 10:57:35;;;;;;;9.80;4.20;;;10.10;99.90;;;;;;7392009;19;20636;-86
2022/11/26 11:00:01;;;;;;;7.30;3.77;;;10.10;99.90;;;;;;7396687;19;20170;-87
2022/11/26 11:02:36;;;;;;;8.87;3.90;;;10.20;99.90;;;;;;7395277;19;20175;-77
2022/11/26 11:05:06;;;;;;;8.47;3.90;;;9.90;99.90;;;;;;7394763;19;20137;-77
2022/11/26 11:07:32;;;;;;;10.53;4.20;;;9.80;99.90;;;;;;7399602;19;20146;-80
2022/11/26 11:10:07;;;;;;;8.60;4.10;;;10.20;99.90;;;;;;7398286;19;20171;-78
2022/11/26 11:12:37;;;;;;;9.77;4.67;;;10.30;99.90;;;;;;7399052;19;20134;-83
2022/11/26 11:15:25;;;;;;;11.73;5.13;;;10.60;99.90;;;;;;7399370;19;20135;-82
2022/11/26 11:18:20;;;;;;;7.57;4.40;;;10.70;99.90;;;;;;7398800;19;20564;-81
2022/11/26 11:20:59;;;;;;;9.53;4.73;;;10.80;99.90;;;;;;7398194;19;20150;-80
2022/11/26 11:23:30;;;;;;;7.90;4.57;;;10.90;99.90;;;;;;7394467;19;20138;-81
2022/11/26 11:26:15;;;;;;;9.60;4.57;;;11.00;99.90;;;;;;7397827;19;20142;-81
2022/11/26 11:28:47;;;;;;;7.83;4.67;;;11.00;99.90;;;;;;7397377;19;20127;-81
2022/11/26 11:31:19;;;;;;;15.63;5.60;;;10.90;99.90;;;;;;7398536;19;20126;-81
2022/11/26 11:33:47;;;;;;;9.97;4.77;;;10.90;99.90;;;;;;7399026;19;20250;-82
2022/11/26 11:36:19;;;;;;;10.50;4.37;;;10.50;99.90;;;;;;7397940;19;20146;-82
2022/11/26 11:39:04;;;;;;;7.47;4.10;;;10.20;99.90;;;;;;7399887;19;20142;-80
2022/11/26 11:41:33;;;;;;;11.77;4.17;;;10.30;99.90;;;;;;7396907;19;20588;-80
2022/11/26 11:44:11;;;;;;;11.27;4.17;;;10.10;99.90;;;;;;7393022;19;20175;-80
2022/11/26 11:46:40;;;;;;;8.73;4.17;;;10.20;99.90;;;;;;7397811;19;20174;-80
2022/11/26 11:49:41;;;;;;;9.07;4.17;;;10.30;99.90;;;;;;7395647;19;20165;-80
2022/11/26 11:52:40;;;;;;;7.90;4.17;;;10.50;99.90;;;;;;7395566;19;20145;-80
2022/11/26 11:55:13;;;;;;;8.07;5.50;;;10.80;99.90;;;;;;7394655;19;20192;-81
2022/11/26 11:57:51;;;;;;;6.83;4.10;;;11.00;99.90;;;;;;7397102;19;20165;-81
2022/11/26 12:00:44;;;;;;;7.63;3.90;;;11.20;99.90;;;;;;7395515;19;20153;-82
2022/11/26 12:03:20;;;;;;;9.70;4.40;;;11.30;99.90;;;;;;7394589;19;20591;-80
2022/11/26 12:06:08;;;;;;;10.27;4.33;;;11.20;99.90;;;;;;7394155;19;20153;-81
2022/11/26 12:08:45;;;;;;;5.37;3.13;;;11.10;99.90;;;;;;7394836;19;20161;-81
2022/11/26 12:11:37;;;;;;;6.50;3.47;;;10.80;99.90;;;;;;7394726;19;20138;-76
2022/11/26 12:14:12;;;;;;;8.00;3.33;;;10.70;99.90;;;;;;7394165;19;20130;-76
2022/11/26 12:16:41;;;;;;;6.30;3.17;;;10.90;99.90;;;;;;7390981;19;20519;-75
2022/11/26 12:19:17;;;;;;;10.47;3.43;;;11.10;99.90;;;;;;7393049;19;20126;-77
2022/11/26 12:21:55;;;;;;;5.73;3.03;;;11.20;99.90;;;;;;7395463;19;20142;-80
2022/11/26 12:24:27;;;;;;;8.77;4.30;;;11.10;99.90;;;;;;7395285;19;20178;-81
2022/11/26 12:27:25;;;;;;;10.50;5.20;;;11.10;99.90;;;;;;7395024;19;20147;-80
2022/11/26 12:30:13;;;;;;;11.27;3.77;;;11.20;99.90;;;;;;7395025;19;20167;-79
2022/11/26 12:32:53;;;;;;;6.57;3.33;;;10.90;99.90;;;;;;7394857;19;20634;-81
2022/11/26 12:35:31;;;;;;;6.40;3.20;;;11.20;99.90;;;;;;7393752;19;20135;-80
2022/11/26 12:38:00;;;;;;;6.53;3.10;;;11.40;99.90;;;;;;7396181;19;20146;-81
2022/11/26 12:40:33;;;;;;;6.77;3.10;;;11.50;99.90;;;;;;7393756;19;20130;-79
2022/11/26 12:43:20;;;;;;;6.93;3.33;;;11.40;99.90;;;;;;7395226;19;20226;-79
2022/11/26 12:45:49;;;;;;;7.60;2.90;;;11.30;99.90;;;;;;7394600;19;20627;-79
2022/11/26 12:48:39;;;;;;;5.47;3.20;;;10.90;99.90;;;;;;7394229;19;20166;-80
2022/11/26 12:51:25;;;;;;;7.17;3.33;;;10.90;99.90;;;;;;7394496;19;20158;-78
2022/11/26 12:54:12;;;;;;;6.83;2.90;;;11.20;99.90;;;;;;7396708;19;20140;-78
2022/11/26 12:56:52;;;;;;;7.37;3.27;;;11.30;99.90;;;;;;7396507;19;20557;-78
2022/11/26 12:59:25;;;;;;;5.57;2.70;;;11.00;99.90;;;;;;7397279;19;20184;-80
2022/11/26 13:01:51;;;;;;;7.30;3.07;;;11.00;99.90;;;;;;7396068;19;20531;-79
2022/11/26 13:04:19;;;;;;;12.07;3.93;;;10.80;99.90;;;;;;7396842;19;20131;-78
2022/11/26 13:07:00;;;;;;;5.87;3.20;;;10.60;99.90;;;;;;7396696;19;20155;-79
2022/11/26 13:09:54;;;;;;;7.87;3.60;;;10.60;99.90;;;;;;7397215;19;20655;-79